Time;durP1;ratioP1;P1;durP2;ratioP2;P2;SDS_P1;SDS_P2;PMS_P1;PMS_P2;Temp;Humidity;BMP_temperature;BMP_pressure;BME280_temperature;BME280_humidity;BME280_pressure;Samples;Min_cycle;Max_cycle;Signal;HPM_P1;HPM_P2
2022/05/23 00:01:21;;;;;;;5.10;1.83;;;14.60;99.90;;;;;;5071496;28;20417;-74
2022/05/23 00:03:47;;;;;;;2.00;1.40;;;14.80;99.90;;;;;;5071480;28;20813;-74
2022/05/23 00:06:18;;;;;;;4.03;1.50;;;14.90;99.90;;;;;;5053500;28;20427;-74
2022/05/23 00:08:44;;;;;;;1.70;1.60;;;15.00;99.90;;;;;;5071399;28;20456;-74
2022/05/23 00:11:10;;;;;;;2.53;1.47;;;15.00;99.90;;;;;;5053163;28;20436;-74
2022/05/23 00:13:36;;;;;;;6.63;1.47;;;15.00;99.90;;;;;;5071480;28;20972;-74
2022/05/23 00:16:03;;;;;;;3.63;1.03;;;15.00;99.90;;;;;;5053521;28;20433;-74
2022/05/23 00:18:28;;;;;;;3.60;1.43;;;15.00;99.90;;;;;;5071415;28;20211;-75
2022/05/23 00:20:54;;;;;;;7.90;1.50;;;15.00;99.90;;;;;;5071339;28;20471;-74
2022/05/23 00:23:22;;;;;;;2.47;1.90;;;15.20;99.90;;;;;;5036617;28;20683;-74
2022/05/23 00:25:48;;;;;;;5.33;1.70;;;15.30;99.90;;;;;;5037277;28;20813;-74
2022/05/23 00:28:14;;;;;;;1.80;1.60;;;15.50;99.90;;;;;;5071172;28;20421;-74
2022/05/23 00:30:40;;;;;;;10.23;1.63;;;15.70;99.90;;;;;;5053332;28;20503;-74
2022/05/23 00:35:52;;;;;;;3.47;1.53;;;16.20;99.90;;;;;;5071540;28;20426;-74
2022/05/23 00:38:18;;;;;;;2.00;1.40;;;16.60;99.90;;;;;;5071194;28;20483;-73
2022/05/23 00:44:03;;;;;;;4.30;1.47;;;16.90;99.40;;;;;;5020115;28;20254;-73
2022/05/23 00:46:29;;;;;;;2.50;1.30;;;17.20;98.10;;;;;;5051278;28;20893;-73
2022/05/23 00:48:59;;;;;;;3.33;1.23;;;17.50;97.20;;;;;;5051233;28;20535;-74
2022/05/23 00:51:25;;;;;;;3.30;1.57;;;17.60;96.50;;;;;;5051071;28;20460;-73
2022/05/23 00:53:54;;;;;;;3.27;1.20;;;17.70;96.60;;;;;;5033485;28;20459;-73
2022/05/23 00:56:25;;;;;;;2.90;1.53;;;17.90;96.00;;;;;;5051598;28;20906;-73
2022/05/23 00:59:02;;;;;;;2.20;1.23;;;18.00;95.10;;;;;;5051518;28;20479;-73
2022/05/23 01:01:31;;;;;;;2.80;1.20;;;18.20;94.60;;;;;;5051610;28;20424;-73
2022/05/23 01:03:56;;;;;;;2.70;1.63;;;18.20;93.90;;;;;;5033694;28;20473;-73
2022/05/23 01:06:22;;;;;;;1.47;1.37;;;18.40;93.80;;;;;;5052292;28;21112;-73
2022/05/23 01:08:51;;;;;;;2.63;1.20;;;18.30;94.10;;;;;;5033580;28;20187;-75
2022/05/23 01:11:18;;;;;;;3.83;1.17;;;18.30;94.10;;;;;;5033012;28;20441;-74
2022/05/23 01:13:44;;;;;;;2.70;1.20;;;18.30;94.20;;;;;;5033037;28;20488;-74
2022/05/23 01:16:11;;;;;;;2.73;1.10;;;18.40;93.30;;;;;;5049898;28;20455;-75
2022/05/23 01:18:37;;;;;;;1.40;1.30;;;18.40;94.00;;;;;;5050847;28;20199;-74
2022/05/23 01:21:05;;;;;;;1.00;0.90;;;18.30;94.60;;;;;;5050574;28;20934;-74
2022/05/23 01:23:55;;;;;;;4.10;1.20;;;18.40;93.80;;;;;;5032606;28;20443;-77
2022/05/23 01:26:21;;;;;;;3.07;1.03;;;18.40;93.70;;;;;;5050410;28;20462;-75
2022/05/23 01:28:47;;;;;;;4.47;1.93;;;18.40;93.70;;;;;;5032275;28;20457;-74
2022/05/23 01:31:13;;;;;;;2.60;1.40;;;18.40;93.50;;;;;;5049099;28;20237;-74
2022/05/23 01:33:39;;;;;;;1.50;1.37;;;18.40;93.40;;;;;;5050248;28;20717;-74
2022/05/23 01:36:09;;;;;;;3.00;1.47;;;18.50;93.10;;;;;;5050256;28;20503;-75
2022/05/23 01:38:35;;;;;;;1.80;1.40;;;18.50;93.20;;;;;;5049854;28;20505;-75
2022/05/23 01:41:01;;;;;;;1.50;1.40;;;18.50;93.60;;;;;;5049886;28;20465;-74
2022/05/23 01:43:27;;;;;;;4.00;1.27;;;18.50;93.20;;;;;;5051520;28;20219;-74
2022/05/23 01:45:52;;;;;;;3.77;1.60;;;18.40;93.70;;;;;;5069776;28;20261;-74
2022/05/23 01:48:18;;;;;;;1.20;1.10;;;18.40;93.60;;;;;;5035127;28;20968;-74
2022/05/23 01:50:43;;;;;;;7.50;1.87;;;18.40;93.80;;;;;;5051752;28;20190;-74
2022/05/23 01:53:09;;;;;;;8.33;1.87;;;18.40;93.80;;;;;;5051451;28;20220;-74
2022/05/23 01:55:36;;;;;;;2.70;1.43;;;18.30;93.90;;;;;;5069394;28;20195;-74
2022/05/23 01:58:02;;;;;;;1.83;1.40;;;18.30;94.10;;;;;;5051641;28;20571;-74
2022/05/23 02:03:12;;;;;;;4.13;1.47;;;18.10;95.50;;;;;;5069253;28;20446;-74
2022/05/23 02:05:38;;;;;;;1.60;1.17;;;18.00;94.60;;;;;;5069224;28;21251;-74
2022/05/23 02:08:04;;;;;;;2.90;1.50;;;18.00;94.90;;;;;;5069289;28;20261;-74
2022/05/23 02:10:30;;;;;;;2.40;1.40;;;18.10;94.70;;;;;;5069163;28;20585;-74
2022/05/23 02:12:59;;;;;;;2.40;1.57;;;18.10;95.00;;;;;;5068998;28;20434;-74
2022/05/23 02:15:25;;;;;;;1.90;1.40;;;18.10;95.60;;;;;;5051760;28;20420;-75
2022/05/23 02:17:50;;;;;;;1.43;1.30;;;18.10;95.40;;;;;;5069179;28;20423;-74
2022/05/23 02:20:16;;;;;;;1.73;1.40;;;18.10;94.70;;;;;;5034744;28;20319;-74
2022/05/23 02:22:42;;;;;;;5.80;1.90;;;18.10;94.60;;;;;;5069643;28;20814;-75
2022/05/23 02:25:08;;;;;;;4.50;1.40;;;18.10;94.60;;;;;;5070069;28;20924;-74
2022/05/23 02:27:34;;;;;;;3.10;1.40;;;18.20;93.90;;;;;;5051511;28;20192;-74
2022/05/23 02:30:02;;;;;;;2.23;1.27;;;18.20;94.60;;;;;;5034880;28;20432;-74
2022/05/23 02:32:28;;;;;;;1.57;1.00;;;18.20;94.80;;;;;;5069417;28;20448;-74
2022/05/23 02:34:54;;;;;;;2.50;1.53;;;18.10;94.90;;;;;;5069596;28;20427;-75
2022/05/23 02:37:20;;;;;;;3.97;1.33;;;18.20;94.90;;;;;;5069353;28;20232;-74
2022/05/23 02:39:46;;;;;;;1.10;0.90;;;18.10;94.40;;;;;;5069259;28;20249;-75
2022/05/23 02:42:11;;;;;;;3.23;1.40;;;18.20;94.60;;;;;;5069114;28;20461;-74
2022/05/23 02:44:37;;;;;;;3.17;1.20;;;18.20;95.20;;;;;;5049824;28;20721;-74
2022/05/23 02:47:04;;;;;;;3.50;1.30;;;18.20;94.20;;;;;;5030828;28;20186;-74
2022/05/23 02:49:29;;;;;;;4.47;1.40;;;18.20;94.60;;;;;;5048724;28;20188;-75
2022/05/23 02:51:55;;;;;;;4.20;1.43;;;18.20;94.50;;;;;;5030902;28;20447;-75
2022/05/23 02:54:21;;;;;;;1.83;1.47;;;18.20;94.20;;;;;;5049036;28;20202;-75
2022/05/23 02:56:47;;;;;;;2.60;1.07;;;18.20;94.60;;;;;;5048719;28;20182;-74
2022/05/23 02:59:12;;;;;;;1.73;1.30;;;18.30;94.50;;;;;;5048604;28;20971;-74
2022/05/23 03:03:01;;;;;;;3.63;1.53;;;18.30;94.60;;;;;;5048427;28;20211;-73
2022/05/23 03:04:24;;;;;;;2.10;1.30;;;18.30;94.70;;;;;;5048260;28;20239;-73
2022/05/23 03:06:50;;;;;;;2.43;1.30;;;18.30;94.80;;;;;;5048494;28;20455;-73
2022/05/23 03:09:16;;;;;;;2.80;1.43;;;18.30;95.10;;;;;;5030565;28;20442;-74
2022/05/23 03:11:42;;;;;;;3.20;1.60;;;18.20;95.20;;;;;;5030287;28;20468;-73
2022/05/23 03:14:07;;;;;;;5.40;1.80;;;18.10;95.50;;;;;;5030367;28;20194;-73
2022/05/23 03:16:33;;;;;;;3.40;1.37;;;18.00;96.10;;;;;;5030372;28;20193;-73
2022/05/23 03:18:58;;;;;;;2.53;1.60;;;17.90;96.90;;;;;;5048480;28;20205;-73
2022/05/23 03:27:01;;;;;;;4.80;1.40;;;18.00;96.00;;;;;;5048582;28;20424;-74
2022/05/23 03:29:28;;;;;;;4.90;1.57;;;18.10;96.40;;;;;;5031606;28;20421;-74
2022/05/23 03:31:53;;;;;;;1.70;1.60;;;18.10;95.40;;;;;;5029965;28;20567;-74
2022/05/23 03:34:19;;;;;;;3.37;1.30;;;18.20;95.40;;;;;;5051393;28;20512;-74
2022/05/23 03:36:45;;;;;;;1.77;1.10;;;18.20;96.00;;;;;;5052220;28;20985;-73
2022/05/23 03:39:11;;;;;;;1.30;1.20;;;18.10;96.20;;;;;;5052221;28;20205;-74
2022/05/23 03:41:38;;;;;;;2.33;1.80;;;18.20;96.20;;;;;;5034257;28;20582;-74
2022/05/23 03:44:05;;;;;;;2.03;1.70;;;18.20;96.20;;;;;;5066616;28;20207;-74
2022/05/23 03:46:31;;;;;;;1.37;1.27;;;18.20;96.70;;;;;;5073319;28;20418;-77
2022/05/23 03:48:57;;;;;;;2.40;1.40;;;18.20;97.10;;;;;;5072878;28;21027;-76
2022/05/23 03:51:23;;;;;;;4.00;1.33;;;18.10;97.60;;;;;;5072775;28;20177;-76
2022/05/23 03:53:48;;;;;;;9.07;1.57;;;18.10;97.80;;;;;;5072902;28;20443;-77
2022/05/23 03:56:14;;;;;;;3.40;1.53;;;18.10;98.60;;;;;;5053702;28;20205;-77
2022/05/23 03:58:40;;;;;;;2.10;1.40;;;18.00;98.90;;;;;;5053813;28;20209;-77
2022/05/23 04:01:13;;;;;;;2.40;1.97;;;18.00;99.00;;;;;;5054290;28;20262;-77
2022/05/23 04:03:39;;;;;;;6.47;1.80;;;18.00;99.40;;;;;;5071453;28;20229;-76
2022/05/23 04:06:05;;;;;;;2.50;1.23;;;18.00;99.60;;;;;;5070706;28;21313;-77
2022/05/23 04:08:31;;;;;;;2.90;1.07;;;18.10;98.80;;;;;;5052275;28;20427;-76
2022/05/23 04:10:57;;;;;;;5.33;1.33;;;18.20;98.60;;;;;;5070284;28;20487;-76
2022/05/23 04:13:23;;;;;;;3.50;1.53;;;18.30;98.20;;;;;;5069830;28;20219;-76
2022/05/23 04:15:50;;;;;;;1.63;1.50;;;18.40;98.20;;;;;;5070174;28;20426;-76
2022/05/23 04:18:16;;;;;;;1.57;1.43;;;18.40;98.50;;;;;;5070125;28;20514;-76
2022/05/23 04:20:42;;;;;;;2.70;1.63;;;18.40;98.10;;;;;;5070159;28;20534;-76
2022/05/23 04:23:10;;;;;;;1.80;1.40;;;18.50;98.40;;;;;;5051701;28;20254;-76
2022/05/23 04:25:47;;;;;;;2.60;1.70;;;18.50;98.60;;;;;;5052515;28;20187;-77
2022/05/23 04:28:14;;;;;;;3.63;2.30;;;18.30;99.90;;;;;;5051604;28;20426;-76
2022/05/23 04:30:40;;;;;;;3.23;2.00;;;17.70;99.90;;;;;;5051636;28;20497;-76
2022/05/23 04:36:07;;;;;;;4.57;1.93;;;17.20;99.90;;;;;;4987737;28;20554;-76
2022/05/23 04:38:33;;;;;;;1.60;1.50;;;17.10;99.90;;;;;;5052253;28;20621;-76
2022/05/23 04:40:59;;;;;;;6.00;2.40;;;17.20;99.90;;;;;;5018523;28;20186;-77
2022/05/23 04:43:24;;;;;;;5.43;2.80;;;17.00;99.90;;;;;;5051654;28;20229;-76
2022/05/23 04:45:50;;;;;;;2.47;2.27;;;16.80;99.90;;;;;;5034873;28;20513;-76
2022/05/23 04:50:59;;;;;;;3.20;2.70;;;16.40;99.90;;;;;;5055297;28;20197;-77
2022/05/23 04:53:25;;;;;;;4.43;2.90;;;16.30;99.90;;;;;;5036063;28;20799;-77
2022/05/23 04:55:51;;;;;;;2.63;2.37;;;16.30;99.90;;;;;;5052490;28;20272;-76
2022/05/23 04:58:17;;;;;;;8.30;3.10;;;16.20;99.90;;;;;;5052329;28;20243;-76
2022/05/23 05:00:43;;;;;;;4.80;2.67;;;16.10;99.90;;;;;;5052707;28;20195;-76
2022/05/23 05:03:09;;;;;;;5.93;2.70;;;16.00;99.90;;;;;;5070353;28;20202;-75
2022/05/23 05:05:35;;;;;;;3.47;2.90;;;16.00;99.90;;;;;;5052150;28;20412;-76
2022/05/23 05:08:02;;;;;;;8.10;3.63;;;16.10;99.90;;;;;;5070527;28;20173;-76
2022/05/23 05:10:29;;;;;;;2.23;2.03;;;16.00;99.90;;;;;;5052258;28;20424;-76
2022/05/23 05:12:56;;;;;;;2.80;2.50;;;16.00;99.90;;;;;;5071107;28;20532;-75
2022/05/23 05:15:24;;;;;;;3.90;2.57;;;16.00;99.90;;;;;;5053192;28;20437;-76
2022/05/23 05:17:50;;;;;;;4.07;2.87;;;15.90;99.90;;;;;;5070638;28;20777;-77
2022/05/23 05:20:18;;;;;;;5.87;2.73;;;15.90;99.90;;;;;;5053054;28;20465;-77
2022/05/23 05:22:44;;;;;;;5.70;3.37;;;15.90;99.90;;;;;;5052815;28;20280;-78
2022/05/23 05:25:13;;;;;;;3.30;2.60;;;15.80;99.90;;;;;;5052998;28;20786;-78
2022/05/23 05:27:39;;;;;;;3.23;2.50;;;15.60;99.90;;;;;;5052558;28;20798;-78
2022/05/23 05:30:08;;;;;;;2.83;2.37;;;15.60;99.90;;;;;;5070467;28;20427;-77
2022/05/23 05:32:46;;;;;;;5.77;2.87;;;15.50;99.90;;;;;;5051186;28;20211;-78
2022/05/23 05:35:33;;;;;;;2.57;2.37;;;15.40;99.90;;;;;;5069061;28;20416;-78
2022/05/23 05:38:05;;;;;;;5.57;2.70;;;15.50;99.90;;;;;;5051238;28;20450;-77
2022/05/23 05:40:34;;;;;;;5.47;2.17;;;15.30;99.90;;;;;;5051879;28;20814;-77
2022/05/23 05:43:14;;;;;;;4.30;2.53;;;15.30;99.90;;;;;;5069442;28;20453;-77
2022/05/23 05:45:49;;;;;;;4.53;2.70;;;15.50;99.90;;;;;;5069857;28;20448;-77
2022/05/23 05:48:15;;;;;;;2.87;2.67;;;15.40;99.90;;;;;;5051648;28;20430;-78
2022/05/23 05:50:43;;;;;;;3.90;2.00;;;15.60;99.90;;;;;;5069499;28;21114;-77
2022/05/23 05:53:14;;;;;;;4.63;2.80;;;15.60;99.90;;;;;;5069133;28;20541;-78
2022/05/23 05:55:41;;;;;;;8.90;2.77;;;15.70;99.90;;;;;;5069371;28;20417;-78
2022/05/23 05:58:08;;;;;;;3.47;2.53;;;15.80;99.90;;;;;;5050713;28;20457;-77
2022/05/23 06:00:33;;;;;;;4.70;2.60;;;16.00;99.90;;;;;;5069277;28;20419;-77
2022/05/23 06:02:59;;;;;;;6.63;3.00;;;15.90;99.90;;;;;;5069455;28;20438;-78
2022/05/23 06:05:24;;;;;;;3.33;2.60;;;15.70;99.90;;;;;;5051248;28;20271;-78
2022/05/23 06:13:18;;;;;;;4.93;2.70;;;15.70;99.90;;;;;;5069340;28;20973;-79
2022/05/23 06:15:45;;;;;;;3.67;2.20;;;16.00;99.90;;;;;;5051310;28;20627;-78
2022/05/23 06:18:11;;;;;;;2.73;2.50;;;16.20;99.90;;;;;;5069358;28;20183;-79
2022/05/23 06:20:38;;;;;;;6.10;2.80;;;16.30;99.90;;;;;;5069282;28;20518;-79
2022/05/23 06:23:04;;;;;;;2.27;2.07;;;16.40;99.90;;;;;;5069034;28;21101;-79
2022/05/23 06:25:30;;;;;;;3.30;2.13;;;16.50;99.90;;;;;;5068951;28;20977;-78
2022/05/23 06:27:56;;;;;;;2.97;2.70;;;16.60;99.90;;;;;;5069118;28;20426;-79
2022/05/23 06:30:24;;;;;;;9.43;2.50;;;16.60;99.90;;;;;;5050442;28;20431;-79
2022/05/23 06:32:49;;;;;;;10.83;3.20;;;16.70;99.90;;;;;;5068437;28;20927;-79
2022/05/23 06:35:15;;;;;;;2.47;2.23;;;16.70;99.90;;;;;;5068420;28;20434;-79
2022/05/23 06:37:43;;;;;;;5.73;2.60;;;16.80;99.90;;;;;;5050604;28;20487;-79
2022/05/23 06:40:12;;;;;;;2.60;2.30;;;16.90;99.90;;;;;;5050469;28;20686;-79
2022/05/23 06:42:38;;;;;;;1.80;1.70;;;16.90;99.90;;;;;;5065415;28;20450;-79
2022/05/23 06:45:05;;;;;;;3.93;2.50;;;17.00;99.90;;;;;;5029698;28;20438;-79
2022/05/23 06:47:31;;;;;;;4.57;2.50;;;17.10;99.90;;;;;;5047785;28;20404;-79
2022/05/23 06:49:57;;;;;;;3.00;1.90;;;17.10;99.90;;;;;;5047844;28;20420;-79
2022/05/23 06:52:23;;;;;;;5.20;2.20;;;17.00;99.90;;;;;;5013050;28;20683;-79
2022/05/23 06:54:48;;;;;;;6.10;2.30;;;17.30;99.90;;;;;;5047999;28;20213;-79
2022/05/23 06:57:14;;;;;;;7.30;2.93;;;17.60;99.90;;;;;;5047418;28;20429;-79
2022/05/23 06:59:40;;;;;;;4.93;2.80;;;17.80;99.90;;;;;;5047750;28;20210;-79
2022/05/23 07:02:07;;;;;;;4.70;2.70;;;18.10;99.90;;;;;;5047429;28;20582;-76
2022/05/23 07:12:50;;;;;;;5.17;3.00;;;19.10;99.90;;;;;;5046963;28;21021;-77
2022/05/23 07:15:16;;;;;;;5.23;2.53;;;19.80;99.90;;;;;;5028876;28;20428;-79
2022/05/23 07:17:42;;;;;;;11.50;2.57;;;20.00;99.90;;;;;;5012378;28;20215;-77
2022/05/23 07:20:08;;;;;;;6.23;2.97;;;20.10;99.90;;;;;;5028541;28;20261;-77
2022/05/23 07:22:34;;;;;;;5.43;3.27;;;20.10;99.90;;;;;;5028428;28;20280;-77
2022/05/23 07:25:01;;;;;;;3.67;2.53;;;20.20;99.90;;;;;;5046635;28;20931;-77
2022/05/23 07:27:27;;;;;;;6.27;3.17;;;20.40;99.90;;;;;;5046463;28;20418;-77
2022/05/23 07:29:53;;;;;;;3.70;3.40;;;20.40;99.90;;;;;;5046552;28;20435;-77
2022/05/23 07:32:19;;;;;;;3.70;2.70;;;20.40;99.90;;;;;;5046453;28;20517;-78
2022/05/23 07:34:45;;;;;;;5.40;2.90;;;20.50;99.90;;;;;;5028406;28;20236;-78
2022/05/23 07:37:11;;;;;;;5.47;2.50;;;20.60;99.90;;;;;;5012062;28;20197;-78
2022/05/23 07:39:39;;;;;;;3.50;2.17;;;20.80;99.90;;;;;;5028355;28;21006;-77
2022/05/23 07:42:07;;;;;;;6.83;2.70;;;21.00;99.90;;;;;;5028368;28;20454;-77
2022/05/23 07:44:33;;;;;;;3.97;2.70;;;21.10;99.90;;;;;;5046934;28;20530;-77
2022/05/23 07:46:59;;;;;;;4.43;2.67;;;21.10;99.90;;;;;;5066332;28;20429;-77
2022/05/23 07:49:26;;;;;;;2.80;2.30;;;21.20;99.90;;;;;;5066250;28;20805;-78
2022/05/23 07:51:56;;;;;;;6.27;2.63;;;21.10;99.90;;;;;;5048362;28;20463;-77
2022/05/23 08:02:38;;;;;;;3.47;2.67;;;20.50;99.90;;;;;;5066975;28;20447;-77
2022/05/23 08:05:04;;;;;;;5.50;2.87;;;20.30;99.90;;;;;;5066870;28;20864;-77
2022/05/23 08:07:30;;;;;;;10.87;3.20;;;20.40;99.90;;;;;;5067669;28;20428;-77
2022/05/23 08:10:00;;;;;;;4.67;2.70;;;20.20;99.90;;;;;;5049644;28;20417;-77
2022/05/23 08:12:29;;;;;;;3.47;2.17;;;20.50;99.90;;;;;;5049556;28;20198;-76
2022/05/23 08:14:56;;;;;;;3.30;3.00;;;20.50;99.90;;;;;;5066806;28;20424;-78
2022/05/23 08:17:22;;;;;;;6.73;2.50;;;20.60;99.90;;;;;;5049925;28;20424;-77
2022/05/23 08:19:49;;;;;;;4.37;2.77;;;20.70;99.90;;;;;;5067194;28;20460;-78
2022/05/23 08:22:15;;;;;;;4.27;2.60;;;21.00;99.90;;;;;;5070473;28;20546;-77
2022/05/23 08:24:41;;;;;;;4.80;3.00;;;21.10;99.90;;;;;;5036355;28;20449;-77
2022/05/23 08:27:07;;;;;;;8.63;2.93;;;20.90;99.90;;;;;;5051696;28;20499;-78
2022/05/23 08:29:35;;;;;;;3.13;2.60;;;21.00;99.90;;;;;;5070230;28;20194;-77
2022/05/23 08:32:03;;;;;;;4.63;2.70;;;21.10;99.90;;;;;;5069524;28;20203;-77
2022/05/23 08:34:30;;;;;;;4.67;3.10;;;21.00;99.90;;;;;;5051300;28;20769;-77
2022/05/23 08:36:58;;;;;;;3.30;3.00;;;21.20;99.90;;;;;;5069449;28;20435;-78
2022/05/23 08:39:24;;;;;;;2.50;2.30;;;21.50;99.90;;;;;;5051236;28;20473;-77
2022/05/23 08:41:52;;;;;;;3.50;2.80;;;21.30;99.90;;;;;;5051426;28;20413;-77
2022/05/23 08:44:57;;;;;;;6.90;2.70;;;21.20;99.90;;;;;;5051312;28;20479;-79
2022/05/23 08:47:34;;;;;;;3.23;2.80;;;21.30;99.90;;;;;;5069577;28;20880;-78
2022/05/23 08:50:18;;;;;;;5.13;2.70;;;21.60;99.90;;;;;;5069186;28;20507;-80
2022/05/23 08:52:52;;;;;;;5.40;3.23;;;21.40;99.90;;;;;;5050935;28;20952;-76
2022/05/23 08:55:35;;;;;;;4.23;3.17;;;21.40;99.90;;;;;;5069314;28;20413;-78
2022/05/23 08:58:08;;;;;;;14.07;4.00;;;21.90;99.90;;;;;;5051068;28;20891;-76
2022/05/23 09:00:47;;;;;;;3.53;3.17;;;21.90;99.90;;;;;;5069167;28;20999;-76
2022/05/23 09:03:31;;;;;;;8.90;3.60;;;22.30;99.90;;;;;;5069274;28;20476;-76
2022/05/23 09:06:28;;;;;;;7.60;3.47;;;22.70;99.90;;;;;;5034163;28;20425;-77
2022/05/23 09:08:57;;;;;;;3.03;2.53;;;22.70;99.90;;;;;;5069079;28;20417;-77
2022/05/23 09:11:38;;;;;;;10.13;2.63;;;22.80;99.90;;;;;;5034749;28;20981;-77
2022/05/23 09:14:06;;;;;;;4.00;2.90;;;23.10;99.90;;;;;;5069066;28;20438;-77
2022/05/23 09:16:40;;;;;;;7.70;2.60;;;22.40;99.90;;;;;;5069591;28;20458;-77
2022/05/23 09:19:32;;;;;;;10.07;3.10;;;22.40;99.90;;;;;;5069505;28;20889;-74
2022/05/23 09:22:20;;;;;;;4.83;3.47;;;22.40;99.90;;;;;;5069312;28;20478;-75
2022/05/23 09:24:52;;;;;;;4.67;3.20;;;22.20;99.90;;;;;;5051009;28;20532;-74
2022/05/23 09:27:35;;;;;;;5.30;2.87;;;22.20;99.90;;;;;;5050989;28;20837;-74
2022/05/23 09:30:04;;;;;;;5.33;3.33;;;21.80;99.90;;;;;;5068951;28;20516;-76
2022/05/23 09:32:38;;;;;;;4.40;3.00;;;21.70;99.90;;;;;;5050529;28;20450;-75
2022/05/23 09:35:14;;;;;;;7.30;3.27;;;21.80;99.90;;;;;;5050449;28;20432;-75
2022/05/23 09:37:42;;;;;;;6.93;4.10;;;21.60;99.90;;;;;;5050509;28;20874;-75
2022/05/23 09:40:21;;;;;;;13.20;3.43;;;21.40;99.90;;;;;;5050532;28;20493;-74
2022/05/23 09:48:21;;;;;;;8.10;3.13;;;21.60;99.90;;;;;;5068683;28;20412;-75
2022/05/23 09:51:01;;;;;;;11.03;4.10;;;21.50;99.90;;;;;;5049980;28;20448;-74
2022/05/23 09:53:31;;;;;;;6.90;3.80;;;21.70;99.90;;;;;;5050028;28;20962;-76
2022/05/23 09:56:26;;;;;;;7.23;3.23;;;21.80;99.90;;;;;;5049878;28;20991;-75
2022/05/23 09:58:53;;;;;;;5.30;3.57;;;21.80;99.90;;;;;;5049509;28;20466;-75
2022/05/23 10:01:30;;;;;;;5.60;3.33;;;21.60;99.90;;;;;;5067972;28;20499;-74
2022/05/23 10:03:56;;;;;;;7.30;3.57;;;21.40;99.90;;;;;;5049559;28;20529;-75
2022/05/23 10:06:34;;;;;;;9.33;3.70;;;21.40;99.90;;;;;;5067978;28;20539;-75
2022/05/23 10:09:00;;;;;;;13.30;4.50;;;21.40;99.90;;;;;;5067889;28;20414;-76
2022/05/23 10:11:32;;;;;;;5.53;3.80;;;21.20;99.90;;;;;;5068460;28;20432;-74
2022/05/23 10:14:00;;;;;;;9.93;2.60;;;21.10;99.90;;;;;;5067849;28;20202;-74
2022/05/23 10:16:50;;;;;;;9.73;3.70;;;21.10;99.90;;;;;;5067934;28;20448;-74
2022/05/23 10:19:42;;;;;;;3.90;3.50;;;21.20;99.90;;;;;;5049813;28;20464;-74
2022/05/23 10:22:18;;;;;;;7.10;4.00;;;21.20;99.90;;;;;;5045269;28;20464;-75
2022/05/23 10:25:05;;;;;;;18.83;4.87;;;21.00;99.90;;;;;;5068203;28;20416;-75
2022/05/23 10:28:00;;;;;;;8.67;4.43;;;20.70;99.90;;;;;;5068602;28;20428;-74
2022/05/23 10:30:32;;;;;;;7.47;4.50;;;20.50;99.90;;;;;;5054612;28;20433;-74
2022/05/23 10:33:10;;;;;;;7.37;4.67;;;20.30;99.90;;;;;;5049835;28;20464;-76
2022/05/23 10:35:56;;;;;;;7.53;4.67;;;20.40;99.90;;;;;;5050247;28;20453;-73
2022/05/23 10:44:32;;;;;;;7.67;4.90;;;19.80;99.90;;;;;;5067574;28;20467;-72
2022/05/23 10:47:21;;;;;;;9.37;5.70;;;19.60;99.90;;;;;;5067956;28;20518;-72
2022/05/23 10:50:25;;;;;;;8.73;4.73;;;19.40;99.90;;;;;;5067751;28;20758;-72
2022/05/23 10:53:09;;;;;;;6.70;5.67;;;19.50;99.90;;;;;;5059890;28;20483;-73
2022/05/23 10:56:17;;;;;;;9.57;5.60;;;19.30;99.90;;;;;;5049788;28;20808;-72
2022/05/23 10:58:57;;;;;;;7.03;5.00;;;19.40;99.90;;;;;;5033784;28;20998;-74
2022/05/23 11:01:41;;;;;;;17.63;6.33;;;19.50;99.90;;;;;;5067916;28;20547;-74
2022/05/23 11:04:28;;;;;;;6.63;4.40;;;19.60;99.90;;;;;;5068013;28;20530;-74
2022/05/23 11:06:59;;;;;;;10.77;5.23;;;19.70;99.90;;;;;;5068081;28;20408;-73
2022/05/23 11:10:21;;;;;;;9.73;6.00;;;19.80;99.90;;;;;;5068257;28;20425;-74
2022/05/23 11:13:00;;;;;;;10.30;5.10;;;19.90;99.90;;;;;;4966462;28;20443;-74
2022/05/23 11:15:54;;;;;;;12.03;6.30;;;20.00;99.90;;;;;;4966341;28;20800;-73
2022/05/23 11:18:31;;;;;;;10.33;5.67;;;20.00;99.90;;;;;;5048345;28;20426;-73
2022/05/23 11:21:29;;;;;;;8.10;5.50;;;20.00;99.90;;;;;;5067385;28;21055;-74
2022/05/23 11:24:03;;;;;;;8.33;4.80;;;20.00;99.90;;;;;;5053683;28;20454;-73
2022/05/23 11:26:36;;;;;;;8.27;4.60;;;19.90;99.90;;;;;;5067249;28;20413;-74
2022/05/23 11:35:04;;;;;;;13.20;3.77;;;18.90;99.90;;;;;;5067555;28;20397;-76
2022/05/23 11:37:49;;;;;;;10.17;3.20;;;18.50;99.90;;;;;;5066970;28;20432;-76
2022/05/23 11:40:30;;;;;;;10.47;2.73;;;18.10;99.90;;;;;;5066955;28;20467;-76
2022/05/23 11:43:15;;;;;;;6.30;2.87;;;17.80;99.90;;;;;;5067311;28;20456;-78
2022/05/23 11:48:50;;;;;;;7.23;2.80;;;17.50;99.90;;;;;;5067871;28;20507;-78
2022/05/23 11:51:24;;;;;;;8.33;2.93;;;17.40;99.90;;;;;;5049723;28;20420;-78
2022/05/23 11:53:58;;;;;;;6.33;3.03;;;17.40;99.90;;;;;;5068397;28;20423;-77
2022/05/23 11:56:44;;;;;;;5.30;2.30;;;17.40;99.90;;;;;;5054017;28;20425;-77
2022/05/23 11:59:32;;;;;;;8.50;2.83;;;17.40;99.90;;;;;;5071973;28;20498;-78
2022/05/23 12:02:07;;;;;;;7.83;2.67;;;17.40;99.90;;;;;;5024985;28;20487;-77
2022/05/23 12:04:54;;;;;;;9.70;3.33;;;17.40;99.90;;;;;;5072013;28;20990;-77
2022/05/23 12:07:38;;;;;;;7.03;2.90;;;17.40;99.90;;;;;;5071488;28;20420;-77
2022/05/23 12:10:22;;;;;;;8.83;2.70;;;17.40;99.90;;;;;;5053190;28;20433;-78
2022/05/23 12:13:20;;;;;;;13.23;2.97;;;17.30;99.90;;;;;;5053255;28;20909;-78
2022/05/23 12:15:52;;;;;;;10.63;2.77;;;17.30;99.90;;;;;;5070776;28;20419;-77
2022/05/23 12:18:24;;;;;;;15.80;3.17;;;17.20;99.90;;;;;;5053343;28;20536;-79
2022/05/23 12:20:54;;;;;;;7.80;2.70;;;17.20;99.90;;;;;;5072913;28;20444;-78
2022/05/23 12:23:32;;;;;;;12.20;3.77;;;17.10;99.90;;;;;;5071976;28;20444;-78
2022/05/23 12:26:07;;;;;;;9.00;2.80;;;17.20;99.90;;;;;;5070445;28;20422;-80
2022/05/23 12:29:02;;;;;;;5.20;3.23;;;17.30;99.90;;;;;;5070210;28;20988;-78
2022/05/23 12:31:30;;;;;;;5.83;2.83;;;17.20;99.90;;;;;;5052375;28;20438;-78
2022/05/23 12:34:02;;;;;;;8.17;3.33;;;17.20;99.90;;;;;;5052320;28;20559;-78
2022/05/23 12:36:31;;;;;;;6.47;2.77;;;17.50;99.90;;;;;;5052222;28;20937;-78
2022/05/23 12:39:11;;;;;;;14.53;2.90;;;17.80;99.90;;;;;;5052721;28;20610;-78
2022/05/23 12:41:47;;;;;;;6.70;2.83;;;17.70;99.90;;;;;;5070168;28;20416;-78
2022/05/23 12:44:50;;;;;;;4.87;2.20;;;18.00;99.90;;;;;;5054287;28;20802;-78
2022/05/23 12:47:51;;;;;;;11.33;3.13;;;18.40;99.90;;;;;;5050471;28;20500;-78
2022/05/23 12:50:40;;;;;;;6.90;1.90;;;18.60;99.90;;;;;;5032661;28;20926;-78
2022/05/23 12:53:32;;;;;;;4.77;2.10;;;18.90;99.90;;;;;;5051062;28;20486;-79
2022/05/23 12:56:04;;;;;;;10.03;1.90;;;19.20;99.90;;;;;;5051209;28;20494;-78
2022/05/23 12:58:44;;;;;;;4.97;1.93;;;19.40;99.90;;;;;;5032300;28;20426;-78
2022/05/23 13:01:13;;;;;;;4.93;1.60;;;19.50;99.90;;;;;;5050228;28;20507;-78
2022/05/23 13:04:05;;;;;;;5.43;1.47;;;19.50;99.90;;;;;;5031603;28;20453;-79
2022/05/23 13:06:33;;;;;;;3.90;1.50;;;19.60;99.90;;;;;;5049446;28;20428;-78
2022/05/23 13:09:14;;;;;;;6.33;1.40;;;19.80;99.90;;;;;;5032066;28;20422;-79
2022/05/23 13:11:46;;;;;;;8.33;2.47;;;20.40;99.90;;;;;;5050039;28;20410;-78
2022/05/23 13:14:13;;;;;;;7.80;2.30;;;20.50;99.90;;;;;;5051168;28;20427;-79
2022/05/23 13:16:40;;;;;;;10.97;2.90;;;20.60;99.90;;;;;;5031614;28;20433;-78
2022/05/23 13:22:06;;;;;;;7.47;2.60;;;20.80;99.90;;;;;;5050378;28;21044;-79
2022/05/23 13:24:55;;;;;;;9.53;1.73;;;20.90;99.90;;;;;;5031477;28;20425;-78
2022/05/23 13:27:30;;;;;;;7.23;1.70;;;21.30;99.90;;;;;;5031549;28;20430;-78
2022/05/23 13:29:59;;;;;;;4.97;1.63;;;21.90;99.90;;;;;;5016230;28;20422;-79
2022/05/23 13:32:26;;;;;;;2.70;1.53;;;22.00;99.90;;;;;;5032047;28;20446;-77
2022/05/23 13:34:53;;;;;;;4.10;1.67;;;22.30;99.90;;;;;;5031287;28;20962;-78
2022/05/23 13:37:35;;;;;;;6.23;1.60;;;22.30;99.90;;;;;;5049909;28;20446;-78
2022/05/23 13:40:15;;;;;;;5.50;1.83;;;22.60;99.90;;;;;;5031263;28;20466;-79
2022/05/23 13:42:41;;;;;;;7.20;2.27;;;22.60;99.90;;;;;;5034247;28;20464;-78
2022/05/23 13:45:25;;;;;;;7.30;2.43;;;22.40;99.90;;;;;;5069757;28;20422;-78
2022/05/23 13:48:03;;;;;;;6.90;1.93;;;22.30;99.90;;;;;;5073274;28;20422;-78
2022/05/23 13:50:35;;;;;;;5.33;1.90;;;22.60;99.90;;;;;;5071893;28;20417;-78
2022/05/23 13:53:08;;;;;;;3.53;2.20;;;22.60;99.90;;;;;;5071127;28;20437;-79
2022/05/23 13:55:45;;;;;;;5.50;2.40;;;22.90;99.90;;;;;;5053070;28;20428;-78
2022/05/23 13:58:25;;;;;;;9.63;2.27;;;23.30;99.90;;;;;;5071348;28;20498;-77
2022/05/23 14:01:06;;;;;;;3.00;1.70;;;23.50;99.90;;;;;;5072299;28;20421;-78
2022/05/23 14:03:39;;;;;;;7.00;2.40;;;23.80;99.90;;;;;;5072408;28;20425;-78
2022/05/23 14:06:11;;;;;;;3.70;1.77;;;23.90;99.90;;;;;;5054541;28;20421;-78
2022/05/23 14:08:41;;;;;;;7.30;2.13;;;24.00;99.90;;;;;;5052811;28;20491;-79
2022/05/23 14:11:26;;;;;;;9.37;2.63;;;24.30;99.90;;;;;;5068512;28;20414;-78
2022/05/23 14:13:57;;;;;;;6.00;2.10;;;24.50;99.90;;;;;;5068134;28;20423;-79